Aérodrome :
LOGIN :

S'inscrire | Disclaimer

   EN    FR    IT 

 










Légende :    VFR   VFR Marginal   IFR   IFR Intensif   IFR Très Intensif
Visi : 
Plafond : 
>= 8 km
>= 3000ft
5 à 8 km
1000 à 3000 ft
1500m à 5 km
500 à 1000 ft
800 à 1500m
200 à 500 ft
< 800m
< 200 ft
Symboles :   Orages  Brouillard  Fortes neiges  Fortes précipitations  Vent > 20 kt
SIGMETs :   Divers  Orages  Givrage  Turbulence  Onde Orograph.  Cendres Volcan.






- Altitude de l'aérodrome : 1234 ft
- Code IATA : LUX


ELLX - Luxembourg Findel

DERNIER METAR :
  • 150750Z 25016KT 7000 -SHRA SCT007 SCT012CB BKN015 08/08 Q1000 BECMG 25015G30KT

METARs EXPIRÉS :
  • 150720Z 23013KT 5000 -SHRA SCT005 BKN012CB 08/08 Q0999 TEMPO 25020G35KT 4000 SHRA
  • 150650Z 22016G26KT 200V260 9999 -SHRA SCT015 BKN020 09/07 Q0999 NOSIG
  • 150620Z 23017G27KT 200V260 9999 SCT015 BKN020 09/07 Q0999 TEMPO 24020G35KT
  • 150550Z 23017G29KT 9999 SCT015 BKN020 09/07 Q0998 TEMPO 24020G35KT
  • 150520Z 23017G29KT 9999 FEW012 SCT015 BKN020 09/07 Q0998 TEMPO 24020G35KT

TAF TAF ELLX
Valide du 15 à 06h jusqu'au 16 à 12h UTC


150500Z 1506/1612 22018G30KT 9999 BKN015
TEMPO 1506/1510 24018G38KT 3000 SHRA SCT012CB BKN012
BECMG 1510/1512 23008KT SCT020
PROB40
TEMPO 1512/1518 4000 -SHRA SCT012TCU
BECMG 1521/1523 3000 -DZ BR BKN004
ATIS : +352 4798 27300
Météo : +352 4798 27010 / 27050



MET'MAP, la Météo Aéronautique d'un coup d'oeil ! - Copyright ORBIFLY Décembre 2007 - Disclaimer

ORBIFLY MET'MAP TEAM :

Programmation & Développement : Alexandra Zaïnal
Sur une idée originale de : Baudouin d'Aumeries
Assistance à la programmation : Marc-Olivier Méhu
Soutien technique & logistique : Manuel Goepfert

Contact : metmap@orbifly.com




SOURCES & CREDITS :

   NOAA